Aviation Digital Data Service (ADDS)

Output produced by METARs form (0928 UTC 19 July 2018)
found at http://aviationweather.gov/adds/metars/
 
METAR text: EYKA 190920Z 36009KT 330V040 9999 SCT037 BKN110 24/15 Q1007
Conditions at: EYKA (KAUNAS , LT) observed 0920 UTC 19 July 2018
Temperature: 24.0°C (75°F)
Dewpoint: 15.0°C (59°F) [RH = 57%]
Pressure (altimeter): 29.73 inches Hg (1007.0 mb)
Winds: from the N (360 degrees) at 10 MPH (9 knots; 4.7 m/s)
Visibility: 6 or more miles (10+ km)
Ceiling: 11000 feet AGL
Clouds: scattered clouds at 3700 feet AGL
broken clouds at 11000 feet AGL
Weather: no significant weather observed at this time

METAR text: EYKA 190850Z 35010KT 310V060 9999 SCT038 BKN110 25/16 Q1007
Conditions at: EYKA (KAUNAS , LT) observed 0850 UTC 19 July 2018
Temperature: 25.0°C (77°F)
Dewpoint: 16.0°C (61°F) [RH = 57%]
Pressure (altimeter): 29.73 inches Hg (1007.0 mb)
Winds: from the N (350 degrees) at 12 MPH (10 knots; 5.2 m/s)
Visibility: 6 or more miles (10+ km)
Ceiling: 11000 feet AGL
Clouds: scattered clouds at 3800 feet AGL
broken clouds at 11000 feet AGL
Weather: no significant weather observed at this time

METAR text: EYKA 190820Z 02009KT 320V080 9999 FEW033 BKN097 24/16 Q1007
Conditions at: EYKA (KAUNAS , LT) observed 0820 UTC 19 July 2018
Temperature: 24.0°C (75°F)
Dewpoint: 16.0°C (61°F) [RH = 61%]
Pressure (altimeter): 29.73 inches Hg (1007.0 mb)
Winds: from the NNE (20 degrees) at 10 MPH (9 knots; 4.7 m/s)
Visibility: 6 or more miles (10+ km)
Ceiling: 9700 feet AGL
Clouds: few clouds at 3300 feet AGL
broken clouds at 9700 feet AGL
Weather: no significant weather observed at this time

METAR text: EYKA 190750Z 03007KT 330V070 9999 FEW032 24/17 Q1007
Conditions at: EYKA (KAUNAS , LT) observed 0750 UTC 19 July 2018
Temperature: 24.0°C (75°F)
Dewpoint: 17.0°C (63°F) [RH = 65%]
Pressure (altimeter): 29.73 inches Hg (1007.0 mb)
Winds: from the NNE (30 degrees) at 8 MPH (7 knots; 3.6 m/s)
Visibility: 6 or more miles (10+ km)
Ceiling: at least 12,000 feet AGL
Clouds: few clouds at 3200 feet AGL
Weather: no significant weather observed at this time

Forecast for: EYKA (KAUNAS , LT)
Text: TAF EYKA 190505Z 1906/2006 01008G18KT 9000 SCT030
Forecast period: 0600 UTC 19 July 2018 to 0600 UTC 20 July 2018
Forecast type: FROM: standard forecast or significant change
Winds: from the N (10 degrees) at 9 MPH (8 knots; 4.2 m/s)
gusting to 21 MPH (18 knots; 9.4 m/s)
Visibility: 6 miles (9 km)
Clouds: scattered clouds at 3000 feet AGL
Weather: no significant weather forecast for this period
Text: TEMPO 1908/1910 SCT020CB
Forecast period: 0800 to 1000 UTC 19 July 2018
Forecast type: TEMPORARY: The following changes expected for less than half the time period
Clouds: scattered clouds at 2000 feet AGL
Weather: no significant weather forecast for this period
Text: TEMPO 1910/1923 TSRA BKN015CB
Forecast period: 1000 to 2300 UTC 19 July 2018
Forecast type: TEMPORARY: The following changes expected for less than half the time period
Ceiling: 1500 feet AGL
Clouds: broken clouds at 1500 feet AGL
Weather: TSRA  (rain associated with thunderstorm(s))
Text: TEMPO 1923/2003 3000 BR SCT005
Forecast period: 2300 UTC 19 July 2018 to 0300 UTC 20 July 2018
Forecast type: TEMPORARY: The following changes expected for less than half the time period
Visibility: 1.86 miles (2.99 km)
Clouds: scattered clouds at 500 feet AGL
Weather: BR  (mist)